Time;durP1;ratioP1;P1;durP2;ratioP2;P2;SDS_P1;SDS_P2;PMS_P1;PMS_P2;Temp;Humidity;BMP_temperature;BMP_pressure;BME280_temperature;BME280_humidity;BME280_pressure;Samples;Min_cycle;Max_cycle;Signal;HPM_P1;HPM_P2
2022/05/12 00:01:01;;;;;;;4.97;4.40;;;;;;;19.92;47.14;98903.78;5107531;28;20223;-76
2022/05/12 00:03:31;;;;;;;6.32;4.70;;;;;;;14.47;47.05;98004.16;5107519;28;20154;-76
2022/05/12 00:06:01;;;;;;;6.18;4.43;;;;;;;19.83;47.68;98902.88;5107484;28;20069;-76
2022/05/12 00:08:31;;;;;;;6.45;4.75;;;;;;;19.77;47.45;98898.06;5107690;28;20199;-75
2022/05/12 00:11:03;;;;;;;7.45;4.75;;;;;;;19.58;48.27;98903.59;5107560;28;20040;-75
2022/05/12 00:13:31;;;;;;;5.30;4.47;;;;;;;19.60;47.87;98912.34;5107462;28;20040;-75
2022/05/12 00:16:02;;;;;;;5.22;4.57;;;;;;;19.40;47.61;98869.50;5107802;28;20032;-75
2022/05/12 00:18:32;;;;;;;5.90;4.63;;;;;;;19.62;47.33;98907.66;5107443;28;20047;-75
2022/05/12 00:21:02;;;;;;;6.25;4.68;;;;;;;19.72;47.07;98906.59;5106427;28;20028;-76
2022/05/12 00:23:32;;;;;;;6.95;4.70;;;;;;;19.11;47.41;98799.81;5107017;28;20101;-76
2022/05/12 00:26:04;;;;;;;9.25;4.75;;;;;;;18.07;47.78;98632.06;5107342;28;20129;-77
2022/05/12 00:28:32;;;;;;;6.40;5.45;;;;;;;19.72;47.42;98911.97;5107270;28;20043;-76
2022/05/12 00:31:02;;;;;;;6.35;4.65;;;;;;;19.77;47.27;98904.28;5106617;28;20081;-77
2022/05/12 00:33:32;;;;;;;7.75;4.80;;;;;;;19.75;47.24;98908.13;5107176;28;20115;-77
2022/05/12 00:36:03;;;;;;;5.53;4.43;;;;;;;19.68;47.62;98909.75;5107228;28;20043;-76
2022/05/12 00:38:33;;;;;;;6.18;5.57;;;;;;;19.65;47.51;98915.44;5106900;28;20044;-76
2022/05/12 00:41:04;;;;;;;5.00;4.50;;;;;;;17.31;47.56;98517.03;5107411;28;20036;-76
2022/05/12 00:43:37;;;;;;;5.28;4.60;;;;;;;19.69;47.61;98914.97;5106134;28;20043;-77
2022/05/12 00:46:10;;;;;;;6.65;4.95;;;;;;;19.70;47.62;98916.66;5106845;28;20137;-76
2022/05/12 00:48:39;;;;;;;6.03;5.47;;;;;;;19.79;47.21;98902.28;5107154;28;20032;-76
2022/05/12 00:51:11;;;;;;;5.80;5.20;;;;;;;19.77;47.72;98920.44;5106661;28;20064;-76
2022/05/12 00:53:39;;;;;;;13.02;5.57;;;;;;;18.86;47.91;98808.59;5106286;28;20051;-76
2022/05/12 00:56:13;;;;;;;6.68;5.72;;;;;;;19.62;49.09;98915.72;5106773;28;20040;-77
2022/05/12 00:58:48;;;;;;;9.85;6.00;;;;;;;19.49;48.03;98922.31;5106713;28;20051;-76
2022/05/12 01:01:20;;;;;;;7.78;5.97;;;;;;;19.49;47.79;98932.22;5106410;28;20036;-76
2022/05/12 01:03:53;;;;;;;6.38;5.50;;;;;;;19.50;48.19;98921.31;5106412;28;20099;-76
2022/05/12 01:06:25;;;;;;;5.60;4.82;;;;;;;19.43;48.35;98916.72;5106333;28;20040;-76
2022/05/12 01:08:57;;;;;;;7.35;5.53;;;;;;;19.16;47.97;98867.34;5105403;28;20044;-76
2022/05/12 01:11:31;;;;;;;8.82;5.85;;;;;;;19.45;48.48;98917.41;5106366;28;20085;-76
2022/05/12 01:14:07;;;;;;;6.88;5.70;;;;;;;19.46;48.57;98908.34;5106272;28;20378;-76
2022/05/12 01:16:43;;;;;;;5.72;5.10;;;;;;;19.38;49.07;98922.50;5106108;28;20047;-76
2022/05/12 01:19:18;;;;;;;5.07;4.57;;;;;;;19.32;48.78;98923.09;5105146;28;20050;-76
2022/05/12 01:21:52;;;;;;;6.28;5.65;;;;;;;18.94;48.62;98870.44;5106041;28;20097;-76
2022/05/12 01:24:31;;;;;;;5.93;5.22;;;;;;;19.27;49.71;98925.41;5106394;28;20330;-76
2022/05/12 01:29:59;;;;;;;7.82;5.45;;;;;;;19.27;49.02;98916.50;5119670;27;20614;-75
2022/05/12 01:32:32;;;;;;;6.30;5.63;;;;;;;19.19;48.98;98952.16;5102688;28;20283;-75
2022/05/12 01:35:07;;;;;;;7.18;5.45;;;;;;;18.92;49.23;98883.16;5102692;28;20040;-75
2022/05/12 01:37:41;;;;;;;6.38;5.78;;;;;;;18.78;49.20;98883.66;5102674;28;20036;-75
2022/05/12 01:40:16;;;;;;;10.45;6.10;;;;;;;19.06;49.76;98925.66;5102700;28;20047;-75
2022/05/12 01:42:48;;;;;;;8.25;5.75;;;;;;;19.07;49.60;98929.19;5102047;28;20041;-75
2022/05/12 01:45:23;;;;;;;6.95;6.25;;;;;;;19.00;49.96;98931.63;5102524;28;20208;-75
2022/05/12 01:47:55;;;;;;;7.57;6.80;;;;;;;19.01;49.53;98929.78;5102173;28;20330;-75
2022/05/12 01:50:27;;;;;;;7.55;5.40;;;;;;;18.69;50.03;98885.41;5102963;28;20051;-75
2022/05/12 01:53:00;;;;;;;7.93;5.93;;;;;;;18.96;49.80;98940.13;5102655;28;20223;-75
2022/05/12 01:55:32;;;;;;;7.00;5.68;;;;;;;19.00;50.02;98930.75;5101894;28;20051;-74
2022/05/12 01:58:05;;;;;;;10.15;7.07;;;;;;;18.97;50.44;98936.44;5103080;28;20045;-75
2022/05/12 02:00:40;;;;;;;8.23;6.60;;;;;;;18.92;50.20;98936.88;5102842;28;20048;-75
2022/05/12 02:03:13;;;;;;;6.47;5.65;;;;;;;18.85;50.79;98944.69;5102080;28;20040;-74
2022/05/12 02:05:46;;;;;;;5.78;5.18;;;;;;;17.75;50.30;98790.63;5105112;28;20047;-75
2022/05/12 02:08:19;;;;;;;7.65;5.80;;;;;;;18.82;50.22;98939.59;5106714;28;20293;-75
2022/05/12 02:10:52;;;;;;;5.90;5.30;;;;;;;18.84;50.13;98934.09;5102337;28;20040;-75
2022/05/12 02:13:27;;;;;;;6.00;5.40;;;;;;;17.87;50.31;98789.47;5101765;28;20051;-75
2022/05/12 02:16:00;;;;;;;8.75;6.55;;;;;;;18.60;51.64;98926.53;5101483;28;20040;-75
2022/05/12 02:18:33;;;;;;;6.78;5.70;;;;;;;18.69;50.84;98943.59;5102291;28;20052;-75
2022/05/12 02:21:03;;;;;;;7.10;5.63;;;;;;;18.68;51.15;98939.22;5102158;28;20200;-75
2022/05/12 02:23:33;;;;;;;7.55;5.78;;;;;;;18.40;50.56;98898.03;5102132;28;20040;-75
2022/05/12 02:26:04;;;;;;;6.72;5.82;;;;;;;18.68;50.68;98945.44;5102066;28;20323;-75
2022/05/12 02:28:34;;;;;;;6.55;5.38;;;;;;;18.67;50.76;98950.94;5101954;28;20053;-75
2022/05/12 02:31:05;;;;;;;6.72;5.65;;;;;;;18.61;51.21;98954.22;5101983;28;20219;-75
2022/05/12 02:33:33;;;;;;;7.00;5.18;;;;;;;18.56;51.36;98946.59;5101836;28;20057;-75
2022/05/12 02:36:04;;;;;;;7.18;6.20;;;;;;;18.49;51.35;98951.66;5102110;28;20289;-75
2022/05/12 02:38:34;;;;;;;6.43;5.47;;;;;;;18.49;51.53;98956.19;5101009;28;20319;-75
2022/05/12 02:41:04;;;;;;;7.82;5.07;;;;;;;17.92;51.24;98856.91;5089639;28;20082;-75
2022/05/12 02:43:34;;;;;;;6.38;5.50;;;;;;;18.50;51.19;98937.25;5087461;28;20041;-75
2022/05/12 02:46:09;;;;;;;6.38;5.38;;;;;;;18.45;52.35;98950.25;5088484;28;20300;-75
2022/05/12 02:48:41;;;;;;;7.68;4.90;;;;;;;18.40;51.58;98946.31;5088052;28;20041;-75
2022/05/12 02:51:09;;;;;;;6.85;5.25;;;;;;;18.44;51.21;98951.25;5088403;28;20055;-75
2022/05/12 02:53:40;;;;;;;5.82;4.63;;;;;;;18.43;51.44;98948.72;5088013;28;20048;-75
2022/05/12 02:56:10;;;;;;;5.47;4.75;;;;;;;17.74;51.34;98871.16;5087205;28;20036;-75
2022/05/12 02:58:40;;;;;;;6.78;5.63;;;;;;;18.41;51.33;98953.38;5087925;28;20044;-75
2022/05/12 03:01:11;;;;;;;6.00;5.40;;;;;;;18.40;51.79;98960.59;5087935;28;20040;-75
2022/05/12 03:03:40;;;;;;;6.22;4.90;;;;;;;18.40;51.28;98954.38;5088079;28;20051;-75
2022/05/12 03:06:10;;;;;;;6.57;5.35;;;;;;;18.34;51.23;98960.31;5087717;28;20047;-75
2022/05/12 03:08:42;;;;;;;5.95;4.53;;;;;;;18.28;51.59;98954.53;5087776;28;20044;-75
2022/05/12 03:11:10;;;;;;;5.93;5.18;;;;;;;18.11;51.55;98928.44;5086985;28;20064;-75
2022/05/12 03:13:40;;;;;;;5.35;4.85;;;;;;;17.79;51.17;98879.63;5087932;28;20048;-75
2022/05/12 03:16:12;;;;;;;7.05;4.60;;;;;;;18.28;51.65;98967.94;5087640;28;20041;-75
2022/05/12 03:18:40;;;;;;;10.48;5.53;;;;;;;18.22;51.85;98968.50;5087891;28;20048;-75
2022/05/12 03:21:11;;;;;;;7.03;4.78;;;;;;;18.19;51.36;98971.47;5087628;28;20048;-75
2022/05/12 03:23:41;;;;;;;6.10;5.25;;;;;;;18.19;51.81;98976.00;5086701;28;20082;-75
2022/05/12 03:26:11;;;;;;;10.40;5.15;;;;;;;18.14;51.78;98968.38;5086952;28;20280;-75
2022/05/12 03:28:42;;;;;;;7.30;5.65;;;;;;;18.15;51.66;98983.47;5087093;28;20044;-75
2022/05/12 03:31:13;;;;;;;5.43;4.93;;;;;;;18.10;52.05;98980.38;5087583;28;20028;-75
2022/05/12 03:33:42;;;;;;;6.10;5.50;;;;;;;17.51;52.14;98892.00;5086472;28;20040;-75
2022/05/12 03:36:15;;;;;;;6.45;5.40;;;;;;;18.11;51.72;98997.31;5103255;28;20074;-75
2022/05/12 03:38:47;;;;;;;5.28;4.60;;;;;;;18.08;51.80;99011.00;5086590;28;20036;-75
2022/05/12 03:41:20;;;;;;;7.70;4.78;;;;;;;18.08;52.48;98982.34;5087456;28;20048;-75
2022/05/12 03:46:43;;;;;;;6.07;5.32;;;;;;;17.32;51.69;98876.75;5086368;28;20040;-75
2022/05/12 03:49:16;;;;;;;5.80;5.20;;;;;;;18.09;51.97;98994.75;5086898;28;20047;-75
2022/05/12 03:51:48;;;;;;;5.43;4.93;;;;;;;18.08;51.62;98992.22;5086036;28;20213;-75
2022/05/12 03:54:21;;;;;;;7.90;5.10;;;;;;;18.02;51.81;98996.31;5086868;28;20036;-75
2022/05/12 03:56:53;;;;;;;6.38;5.07;;;;;;;17.98;52.24;98991.38;5086820;28;20040;-75
2022/05/12 03:59:25;;;;;;;6.38;5.68;;;;;;;18.01;52.14;98993.78;5086250;28;20300;-75
2022/05/12 04:01:59;;;;;;;7.15;5.03;;;;;;;18.05;52.06;98993.34;5085817;28;20055;-74
2022/05/12 04:04:33;;;;;;;5.75;5.15;;;;;;;17.55;51.92;98906.81;5086150;28;20037;-74
2022/05/12 04:07:05;;;;;;;9.95;5.45;;;;;;;18.08;52.02;98993.06;5086540;28;20041;-75
2022/05/12 04:09:37;;;;;;;7.70;5.20;;;;;;;17.29;52.14;98888.59;5085702;28;20197;-74
2022/05/12 04:12:11;;;;;;;6.78;5.85;;;;;;;17.96;52.77;98996.88;5086755;28;20037;-76
2022/05/12 04:14:44;;;;;;;6.90;5.57;;;;;;;17.91;52.87;99004.50;5086535;28;20041;-74
2022/05/12 04:17:19;;;;;;;7.43;6.20;;;;;;;17.81;53.24;99009.00;5086008;28;20037;-75
2022/05/12 04:19:52;;;;;;;9.95;6.43;;;;;;;17.75;53.10;99001.50;5102240;28;20040;-74
2022/05/12 04:22:24;;;;;;;8.18;5.97;;;;;;;17.75;52.97;99010.38;5085534;28;20041;-75
2022/05/12 04:24:57;;;;;;;9.43;7.38;;;;;;;17.82;52.91;99010.69;5086357;28;20224;-75
2022/05/12 04:27:30;;;;;;;10.95;6.25;;;;;;;17.84;53.19;99009.56;5101925;28;20048;-75
2022/05/12 04:30:05;;;;;;;10.23;7.07;;;;;;;17.94;53.11;99015.78;5086061;28;20293;-75
2022/05/12 04:32:38;;;;;;;6.68;5.22;;;;;;;18.00;53.07;99011.69;5086342;28;20048;-74
2022/05/12 04:35:12;;;;;;;7.13;5.95;;;;;;;17.20;52.66;98867.09;5086039;28;20103;-75
2022/05/12 04:37:47;;;;;;;8.40;7.57;;;;;;;18.13;52.77;99012.28;5086221;28;20047;-75
2022/05/12 04:40:21;;;;;;;8.75;7.30;;;;;;;18.13;52.76;99014.94;5085152;28;20055;-75
2022/05/12 04:42:56;;;;;;;8.43;5.90;;;;;;;18.23;52.46;99021.16;5085142;28;20037;-75
2022/05/12 04:45:31;;;;;;;9.75;6.75;;;;;;;18.00;53.32;98978.69;5085311;28;20086;-75
2022/05/12 04:48:06;;;;;;;8.48;5.90;;;;;;;18.25;53.04;99019.19;5086354;28;20047;-75
2022/05/12 04:50:40;;;;;;;8.05;6.40;;;;;;;18.27;53.06;99025.25;5085770;28;20047;-75
2022/05/12 04:53:13;;;;;;;9.02;6.28;;;;;;;18.28;52.78;99064.50;5085042;28;20036;-75
2022/05/12 04:55:47;;;;;;;10.60;6.13;;;;;;;18.28;52.56;99059.13;5085007;28;20096;-76
2022/05/12 04:58:20;;;;;;;8.07;6.85;;;;;;;18.25;52.40;99032.59;5085578;28;20047;-75
2022/05/12 05:00:53;;;;;;;7.60;5.65;;;;;;;17.80;52.83;98948.31;5085658;28;20051;-75
2022/05/12 05:03:27;;;;;;;7.63;5.65;;;;;;;18.33;52.92;99037.25;5084881;28;20040;-75
2022/05/12 05:06:00;;;;;;;7.60;6.53;;;;;;;16.15;52.69;98687.41;5085482;28;20294;-75
2022/05/12 05:08:32;;;;;;;5.47;4.90;;;;;;;18.14;52.41;99005.91;5085029;28;20293;-76
2022/05/12 05:11:06;;;;;;;9.63;7.20;;;;;;;18.41;52.83;99048.13;5085476;28;20048;-76
2022/05/12 05:13:35;;;;;;;6.95;5.93;;;;;;;18.50;52.28;99046.44;5085406;28;20041;-75
2022/05/12 05:16:05;;;;;;;7.40;6.18;;;;;;;17.04;52.25;98781.97;5085676;28;20058;-75
2022/05/12 05:18:38;;;;;;;6.72;6.03;;;;;;;18.41;52.25;99015.09;5084976;28;20040;-75
2022/05/12 05:21:10;;;;;;;5.95;5.35;;;;;;;18.66;51.99;99056.63;5085766;28;20090;-75
2022/05/12 05:23:40;;;;;;;7.70;5.45;;;;;;;18.68;52.20;99055.50;5085659;28;20052;-75
2022/05/12 05:26:11;;;;;;;7.70;6.40;;;;;;;18.76;52.26;99062.81;5085900;28;20040;-75
2022/05/12 05:28:41;;;;;;;7.63;6.57;;;;;;;18.73;52.04;99058.59;5085272;28;20099;-75
2022/05/12 05:31:10;;;;;;;7.30;6.55;;;;;;;18.80;52.43;99062.41;5085536;28;20041;-75
2022/05/12 05:33:42;;;;;;;7.85;5.30;;;;;;;18.84;52.10;99063.81;5085497;28;20040;-76
2022/05/12 05:36:11;;;;;;;7.20;5.85;;;;;;;18.91;52.17;99067.59;5085398;28;20103;-76
2022/05/12 05:38:41;;;;;;;8.05;5.75;;;;;;;18.31;52.08;98953.38;5086030;28;20037;-75
2022/05/12 05:41:11;;;;;;;7.00;5.75;;;;;;;18.71;51.87;99014.94;5085368;28;20044;-75
2022/05/12 05:43:41;;;;;;;7.20;5.18;;;;;;;18.94;52.05;99047.66;5085588;28;20041;-75
2022/05/12 05:46:11;;;;;;;5.95;4.93;;;;;;;19.18;51.92;99076.72;5085509;28;20196;-76
2022/05/12 05:48:43;;;;;;;8.40;5.88;;;;;;;19.23;51.88;99071.75;5085771;28;20041;-76
2022/05/12 05:54:01;;;;;;;7.22;5.07;;;;;;;19.38;51.31;99069.44;5088943;28;20041;-76
2022/05/12 05:56:34;;;;;;;10.02;6.63;;;;;;;19.32;51.63;99052.06;5087795;28;20110;-76
2022/05/12 05:59:06;;;;;;;7.72;5.95;;;;;;;19.53;51.36;99073.38;5087004;28;20047;-76
2022/05/12 06:01:39;;;;;;;6.30;4.43;;;;;;;19.65;50.43;99079.41;5086435;28;20055;-76
2022/05/12 06:04:13;;;;;;;10.10;4.68;;;;;;;19.77;50.01;99062.09;5084565;28;20044;-76
2022/05/12 06:06:46;;;;;;;6.20;4.38;;;;;;;19.59;49.40;99035.16;5085548;28;20320;-75
2022/05/12 06:09:20;;;;;;;6.53;4.22;;;;;;;19.97;49.19;99071.75;5085408;28;20045;-75
2022/05/12 06:11:52;;;;;;;4.60;3.80;;;;;;;20.09;49.02;99070.56;5085545;28;20091;-75
2022/05/12 06:14:26;;;;;;;4.30;3.30;;;;;;;20.18;48.19;99068.78;5085265;28;20050;-76
2022/05/12 06:16:59;;;;;;;5.35;3.63;;;;;;;20.33;47.94;99069.13;5089028;28;20094;-76
2022/05/12 06:19:33;;;;;;;4.45;3.10;;;;;;;20.13;47.61;99023.50;5088920;28;20064;-76
2022/05/12 06:22:05;;;;;;;4.70;3.65;;;;;;;20.56;46.94;99077.59;5104308;28;20045;-76
2022/05/12 06:24:38;;;;;;;6.57;4.15;;;;;;;20.70;46.92;99074.34;5087999;28;20040;-76
2022/05/12 06:27:11;;;;;;;5.07;4.17;;;;;;;20.82;46.63;99071.25;5088305;28;20354;-76
2022/05/12 06:29:44;;;;;;;4.20;3.42;;;;;;;20.97;46.20;99071.53;5088425;28;20119;-75
2022/05/12 06:32:17;;;;;;;5.97;3.95;;;;;;;21.08;45.79;99074.00;5088455;28;20052;-77
2022/05/12 06:34:51;;;;;;;4.65;3.88;;;;;;;20.57;45.82;98956.28;5088524;28;20044;-76
2022/05/12 06:37:24;;;;;;;7.32;4.38;;;;;;;21.38;45.42;99078.06;5088625;28;20049;-76
2022/05/12 06:39:56;;;;;;;4.10;3.55;;;;;;;21.57;45.27;99068.03;5087695;28;20044;-77
2022/05/12 06:42:28;;;;;;;5.38;3.40;;;;;;;21.33;44.65;98975.28;5087444;28;20320;-76
2022/05/12 06:45:01;;;;;;;4.68;3.88;;;;;;;22.39;43.93;99088.91;5088364;28;20036;-77
2022/05/12 06:47:33;;;;;;;5.97;3.88;;;;;;;22.53;43.05;99033.44;5088499;28;20048;-77
2022/05/12 06:50:09;;;;;;;4.60;3.78;;;;;;;22.99;42.30;99072.44;5088303;28;20231;-76
2022/05/12 06:52:41;;;;;;;5.95;4.13;;;;;;;23.10;42.65;99077.50;5088269;28;20292;-77
2022/05/12 06:55:14;;;;;;;4.32;3.42;;;;;;;23.26;42.19;99080.22;5088064;28;20044;-77
2022/05/12 06:57:46;;;;;;;7.78;3.58;;;;;;;23.44;41.63;99088.13;5087856;28;20041;-77
2022/05/12 07:00:20;;;;;;;9.40;4.20;;;;;;;23.64;41.69;99075.03;5088125;28;20044;-76
2022/05/12 07:02:53;;;;;;;6.68;4.00;;;;;;;23.82;41.44;99081.03;5088062;28;20086;-77
2022/05/12 07:05:27;;;;;;;5.97;4.07;;;;;;;23.99;40.79;99081.84;5087820;28;20092;-76
2022/05/12 07:08:00;;;;;;;;;;;;;;;24.06;39.32;99080.13;5088367;28;20095;-77
2022/05/12 07:10:32;;;;;;;6.68;3.40;;;;;;;22.71;40.59;98826.16;5086738;28;19916;-76
2022/05/12 07:13:06;;;;;;;7.28;2.78;;;;;;;24.41;39.88;99077.88;5087053;28;20097;-76
2022/05/12 07:15:38;;;;;;;5.70;3.42;;;;;;;24.53;39.80;99080.00;5087432;28;20097;-76
2022/05/12 07:18:11;;;;;;;6.55;3.25;;;;;;;24.70;39.45;99079.91;5087714;28;20040;-76
2022/05/12 07:26:39;;;;;;;4.25;3.40;;;;;;;24.80;38.65;99051.53;5086535;28;20236;-76
2022/05/12 07:29:15;;;;;;;4.63;2.97;;;;;;;25.12;37.77;99091.06;5086988;28;20209;-76
2022/05/12 07:31:48;;;;;;;4.78;3.05;;;;;;;25.27;37.99;99072.13;5087360;28;20044;-76
2022/05/12 07:34:21;;;;;;;6.70;3.28;;;;;;;25.57;38.08;99083.88;5087012;28;20037;-76
2022/05/12 07:36:57;;;;;;;5.40;3.37;;;;;;;25.49;36.73;99035.97;5086950;28;20040;-76
2022/05/12 07:39:31;;;;;;;7.70;3.25;;;;;;;25.87;36.79;99088.25;5086806;28;20044;-76
2022/05/12 07:42:05;;;;;;;5.10;3.38;;;;;;;25.94;36.70;99084.78;5086510;28;20100;-76
2022/05/12 07:44:38;;;;;;;5.18;3.08;;;;;;;26.06;36.63;99094.16;5086375;28;20048;-76
2022/05/12 07:47:13;;;;;;;7.07;3.42;;;;;;;22.10;35.90;98415.59;5086939;28;20082;-76
2022/05/12 07:49:47;;;;;;;5.80;2.83;;;;;;;25.62;35.85;99002.72;5086213;28;20040;-76
2022/05/12 07:52:21;;;;;;;4.45;3.28;;;;;;;26.44;35.88;99082.06;5086196;28;20044;-77
2022/05/12 07:54:53;;;;;;;4.05;3.30;;;;;;;26.66;35.64;99088.38;5085827;28;20104;-77
2022/05/12 07:57:26;;;;;;;6.40;3.30;;;;;;;26.87;35.49;99084.81;5086895;28;20078;-76
2022/05/12 08:00:00;;;;;;;4.93;3.15;;;;;;;26.90;34.98;99092.56;5086617;28;20082;-76
2022/05/12 08:02:32;;;;;;;4.90;3.25;;;;;;;26.89;34.80;99185.22;5086263;28;20120;-76
2022/05/12 08:05:05;;;;;;;8.35;3.10;;;;;;;26.27;34.42;99034.44;5069033;28;20099;-76
2022/05/12 08:07:39;;;;;;;4.50;3.03;;;;;;;26.58;34.69;99058.56;5086533;28;20040;-76
2022/05/12 08:10:12;;;;;;;;;;;;;;;26.74;32.71;99096.41;5086476;28;20098;-76
2022/05/12 08:12:44;;;;;;;5.03;2.47;;;;;;;27.00;35.47;99100.38;5085634;28;19970;-76
2022/05/12 08:15:17;;;;;;;4.53;2.80;;;;;;;27.18;34.86;99085.28;5085270;28;20086;-76
2022/05/12 08:17:49;;;;;;;6.82;3.50;;;;;;;27.18;34.42;99104.31;5085615;28;20050;-76
2022/05/12 08:20:22;;;;;;;8.38;4.60;;;;;;;27.22;33.52;99101.19;5085467;28;20048;-76
2022/05/12 08:22:56;;;;;;;4.15;3.15;;;;;;;27.35;33.10;99104.03;5101996;28;20254;-76
2022/05/12 08:25:29;;;;;;;;;;;;;;;27.23;31.33;99111.06;5086774;28;20044;-76
2022/05/12 08:28:01;;;;;;;4.13;3.00;;;;;;;27.21;34.25;99111.25;5085180;28;19916;-76
2022/05/12 08:30:34;;;;;;;6.57;2.92;;;;;;;27.48;34.07;99115.03;5085050;28;20078;-76
2022/05/12 08:33:07;;;;;;;5.65;3.38;;;;;;;27.71;33.80;99126.50;5086264;28;20036;-76
2022/05/12 08:35:40;;;;;;;4.25;3.00;;;;;;;27.86;33.42;99120.97;5085334;28;20045;-76
2022/05/12 08:38:15;;;;;;;4.32;2.90;;;;;;;27.71;32.92;99131.97;5085256;28;20041;-77
2022/05/12 08:40:59;;;;;;;12.98;3.65;;;;;;;27.61;31.87;99127.91;5085177;28;20071;-76
2022/05/12 08:43:38;;;;;;;4.30;2.95;;;;;;;27.48;32.37;99134.06;5085800;28;20203;-76
2022/05/12 08:46:13;;;;;;;5.25;3.33;;;;;;;27.40;33.58;99136.94;5086166;28;20051;-77
2022/05/12 08:48:47;;;;;;;10.43;3.10;;;;;;;27.05;33.93;99090.59;5085857;28;20115;-76
2022/05/12 08:51:18;;;;;;;3.88;3.17;;;;;;;27.39;33.48;99129.81;5085850;28;20060;-77
2022/05/12 08:53:57;;;;;;;4.85;3.63;;;;;;;27.48;32.47;99128.63;5085876;28;20088;-77
2022/05/12 08:56:32;;;;;;;9.95;3.70;;;;;;;26.53;33.55;98982.22;5085801;28;20037;-77
2022/05/12 08:59:04;;;;;;;4.68;3.22;;;;;;;27.47;33.52;99146.00;5085092;28;20105;-76
2022/05/12 09:01:50;;;;;;;4.45;3.20;;;;;;;27.49;32.08;99142.03;5085694;28;20094;-77
2022/05/12 09:04:36;;;;;;;5.35;3.20;;;;;;;27.51;31.69;99136.41;5085717;28;20094;-77
2022/05/12 09:07:14;;;;;;;6.28;3.20;;;;;;;27.59;32.46;99133.53;5084482;28;20047;-77
2022/05/12 09:09:57;;;;;;;4.35;3.20;;;;;;;26.48;32.17;99034.44;5085393;28;20056;-77
2022/05/12 09:12:39;;;;;;;4.17;3.23;;;;;;;27.83;31.63;99137.72;5085299;28;20051;-77
2022/05/12 09:15:14;;;;;;;4.35;3.20;;;;;;;27.68;32.05;99104.28;5085519;28;20086;-76
2022/05/12 09:17:52;;;;;;;3.90;2.95;;;;;;;28.00;31.94;99144.50;5085476;28;20048;-76
2022/05/12 09:20:26;;;;;;;7.65;2.85;;;;;;;27.88;32.33;99145.28;5084651;28;20058;-77
2022/05/12 09:22:58;;;;;;;;;;;;;;;27.71;31.00;99145.56;5085293;28;20086;-77
2022/05/12 09:25:36;;;;;;;4.43;2.63;;;;;;;27.55;31.88;99142.28;5084568;28;19928;-77
2022/05/12 09:28:25;;;;;;;5.30;2.63;;;;;;;27.56;31.93;99147.53;5085169;28;20056;-77
2022/05/12 09:31:02;;;;;;;4.35;2.95;;;;;;;27.39;31.88;99119.78;5085377;28;20044;-77
2022/05/12 09:33:38;;;;;;;3.75;2.65;;;;;;;27.70;32.69;99152.06;5084634;28;20057;-76
2022/05/12 09:36:16;;;;;;;3.65;2.63;;;;;;;27.50;31.21;99179.09;5085487;28;20273;-76
2022/05/12 09:38:47;;;;;;;5.07;2.33;;;;;;;27.45;32.43;99159.81;5085438;28;20040;-77
2022/05/12 09:41:24;;;;;;;4.30;2.88;;;;;;;27.36;32.33;99150.09;5087111;28;20037;-77
2022/05/12 09:43:56;;;;;;;4.65;2.95;;;;;;;27.31;32.27;99160.75;5085277;28;20086;-76
2022/05/12 09:46:30;;;;;;;4.40;2.85;;;;;;;27.00;33.12;99106.66;5085234;28;20277;-76
2022/05/12 09:49:17;;;;;;;3.97;2.90;;;;;;;26.94;31.69;99080.25;5085422;28;20040;-77
2022/05/12 09:51:50;;;;;;;8.73;3.35;;;;;;;27.49;31.88;99152.94;5088725;28;20316;-77
2022/05/12 09:54:27;;;;;;;3.17;2.43;;;;;;;27.34;31.63;99111.38;5088524;28;20154;-77
2022/05/12 09:57:14;;;;;;;8.68;2.83;;;;;;;26.84;31.46;99018.06;5089092;28;20358;-76
2022/05/12 09:59:55;;;;;;;3.17;2.38;;;;;;;27.81;31.45;99146.06;5089016;28;20036;-76
2022/05/12 10:08:20;;;;;;;4.10;3.05;;;;;;;26.88;29.95;98990.47;5087798;28;20052;-76
2022/05/12 10:10:59;;;;;;;6.00;3.00;;;;;;;27.94;29.92;99149.94;5088374;28;20051;-77
2022/05/12 10:13:40;;;;;;;6.05;3.47;;;;;;;27.91;30.06;99170.22;5088847;28;20048;-77
2022/05/12 10:16:15;;;;;;;8.02;3.40;;;;;;;27.78;30.86;99160.06;5088078;28;20049;-76
2022/05/12 10:18:51;;;;;;;6.63;2.70;;;;;;;27.59;31.43;99151.75;5087822;28;20042;-78
2022/05/12 10:21:31;;;;;;;7.15;3.42;;;;;;;27.49;31.38;99166.53;5088019;28;20040;-77
2022/05/12 10:24:13;;;;;;;5.45;3.40;;;;;;;27.44;31.21;99152.69;5088781;28;20041;-77
2022/05/12 10:26:52;;;;;;;6.10;2.80;;;;;;;27.27;30.85;99162.16;5087883;28;20041;-77
2022/05/12 10:29:43;;;;;;;3.60;2.42;;;;;;;27.03;31.56;99173.44;5088261;28;20053;-77
2022/05/12 10:32:29;;;;;;;7.57;2.83;;;;;;;26.90;31.93;99159.69;5088609;28;20308;-77
2022/05/12 10:35:09;;;;;;;4.88;3.20;;;;;;;26.84;32.08;99153.16;5088569;28;20032;-76
2022/05/12 10:37:53;;;;;;;3.85;2.78;;;;;;;26.76;32.29;99183.19;5087691;28;20041;-76
2022/05/12 10:40:31;;;;;;;;;;;;;;;26.62;32.61;99165.91;5088921;28;20231;-76
2022/05/12 10:43:48;;;;;;;4.93;3.35;;;;;;;26.61;33.02;99177.78;5088302;28;19916;-75
2022/05/12 10:46:24;;;;;;;;;;;;;;;26.53;32.73;99170.56;5070539;28;20124;-76
2022/05/12 10:49:05;;;;;;;14.77;3.88;;;;;;;26.53;33.32;99164.28;5088141;28;19926;-78
2022/05/12 10:51:49;;;;;;;5.43;3.10;;;;;;;26.59;33.31;99171.69;5087542;28;20041;-79
2022/05/12 10:54:29;;;;;;;6.20;3.53;;;;;;;26.58;33.43;99174.59;5088333;28;20059;-78
2022/05/12 10:57:14;;;;;;;4.85;2.80;;;;;;;26.58;33.26;99170.00;5072233;28;20093;-78
2022/05/12 11:00:12;;;;;;;6.03;3.13;;;;;;;26.59;33.17;99159.97;5088364;28;20040;-78
2022/05/12 11:02:51;;;;;;;6.28;2.97;;;;;;;24.71;33.24;98843.97;5085620;28;20062;-78
2022/05/12 11:05:30;;;;;;;7.28;3.40;;;;;;;26.11;33.17;99083.56;5087070;28;20142;-77
2022/05/12 11:08:09;;;;;;;4.20;2.90;;;;;;;26.11;33.25;99086.28;5087796;28;20134;-78
2022/05/12 11:10:45;;;;;;;7.78;3.30;;;;;;;26.11;33.49;99053.69;5087912;28;20040;-78
2022/05/12 11:13:26;;;;;;;3.70;2.78;;;;;;;26.81;33.79;99153.53;5088287;28;20049;-79
2022/05/12 11:16:01;;;;;;;4.07;2.97;;;;;;;27.00;33.52;99160.22;5087308;28;20036;-78
2022/05/12 11:18:44;;;;;;;6.00;3.28;;;;;;;26.78;33.21;99105.84;5088177;28;20041;-80
2022/05/12 11:21:18;;;;;;;18.27;4.45;;;;;;;27.10;33.38;99147.97;5072894;28;20205;-79
2022/05/12 11:24:30;;;;;;;4.55;3.03;;;;;;;27.06;34.17;99110.47;5087590;28;20067;-79
2022/05/12 11:27:34;;;;;;;4.40;2.95;;;;;;;27.28;33.35;99133.09;5029888;28;20053;-79
2022/05/12 11:30:26;;;;;;;8.07;3.38;;;;;;;26.03;33.06;98923.47;5087652;28;20048;-79
2022/05/12 11:33:24;;;;;;;3.33;2.53;;;;;;;27.37;33.30;99138.19;5086949;28;20044;-79
2022/05/12 11:35:58;;;;;;;4.45;3.53;;;;;;;27.46;33.42;99142.44;5087642;28;20040;-79
2022/05/12 11:39:03;;;;;;;4.28;2.90;;;;;;;26.79;32.67;99042.28;5087929;28;20041;-79
2022/05/12 11:41:40;;;;;;;4.80;3.58;;;;;;;27.50;32.86;99126.56;5088120;28;20045;-78
2022/05/12 11:44:27;;;;;;;5.20;3.63;;;;;;;25.98;32.78;98863.47;5087640;28;20044;-79
2022/05/12 11:47:48;;;;;;;4.82;3.10;;;;;;;27.62;32.84;99126.88;5087794;28;20040;-79
2022/05/12 11:51:00;;;;;;;5.38;3.42;;;;;;;27.79;32.93;99128.25;5086958;28;20044;-79
2022/05/12 11:53:51;;;;;;;12.05;3.58;;;;;;;27.81;32.76;99128.88;5088048;28;20059;-79
2022/05/12 11:56:45;;;;;;;5.72;3.42;;;;;;;27.61;32.85;99052.53;5087395;28;20036;-79
2022/05/12 11:59:44;;;;;;;7.18;3.63;;;;;;;27.69;32.53;99011.53;5088192;28;20104;-79
2022/05/12 12:02:58;;;;;;;4.53;3.33;;;;;;;28.28;32.14;99125.38;5090098;28;20107;-79
2022/05/12 12:06:00;;;;;;;7.72;3.25;;;;;;;28.20;32.10;99124.69;5089342;28;20041;-78
2022/05/12 12:08:44;;;;;;;4.53;2.90;;;;;;;28.10;32.53;99119.63;5089788;28;20094;-79
2022/05/12 12:11:26;;;;;;;4.30;3.00;;;;;;;26.51;32.61;98848.44;5088358;28;20044;-79
2022/05/12 12:14:00;;;;;;;6.55;3.20;;;;;;;28.17;32.38;99131.41;5086589;28;20044;-79
2022/05/12 12:17:03;;;;;;;9.25;3.22;;;;;;;28.22;32.14;99114.44;5087004;28;20036;-78
2022/05/12 12:19:43;;;;;;;4.18;3.20;;;;;;;27.77;32.24;99019.53;5087248;28;20082;-79
2022/05/12 12:22:21;;;;;;;7.05;3.05;;;;;;;28.42;32.23;99118.06;5089866;28;20062;-79
2022/05/12 12:25:02;;;;;;;15.18;3.60;;;;;;;28.36;32.33;99117.00;5089732;28;20044;-79
2022/05/12 12:28:06;;;;;;;5.45;3.33;;;;;;;28.09;32.04;99072.47;5090269;28;20097;-79
2022/05/12 12:31:01;;;;;;;6.10;3.55;;;;;;;28.48;32.05;99108.25;5074443;28;20057;-79
2022/05/12 12:34:05;;;;;;;6.25;3.65;;;;;;;28.72;32.50;99096.78;5087978;28;20296;-78